sensor_id;sensor_type;location;lat;lon;timestamp;temperature;humidity
32215;DHT22;18708;53.124;23.190;2023-09-08T00:01:14;11.80;1.00
32215;DHT22;18708;53.124;23.190;2023-09-08T00:03:39;11.80;1.00
32215;DHT22;18708;53.124;23.190;2023-09-08T00:06:05;11.80;1.00
32215;DHT22;18708;53.124;23.190;2023-09-08T00:08:30;11.80;1.00
32215;DHT22;18708;53.124;23.190;2023-09-08T00:10:56;10.40;1.00
32215;DHT22;18708;53.124;23.190;2023-09-08T00:13:21;11.80;1.00
32215;DHT22;18708;53.124;23.190;2023-09-08T00:15:47;11.70;1.00
32215;DHT22;18708;53.124;23.190;2023-09-08T00:18:12;11.70;1.00
32215;DHT22;18708;53.124;23.190;2023-09-08T00:20:38;11.60;1.00
32215;DHT22;18708;53.124;23.190;2023-09-08T00:23:03;11.60;1.00
32215;DHT22;18708;53.124;23.190;2023-09-08T00:25:29;11.60;1.00
32215;DHT22;18708;53.124;23.190;2023-09-08T00:27:54;11.60;1.00
32215;DHT22;18708;53.124;23.190;2023-09-08T00:30:20;11.50;1.00
32215;DHT22;18708;53.124;23.190;2023-09-08T00:32:45;11.40;1.00
32215;DHT22;18708;53.124;23.190;2023-09-08T00:35:11;11.40;1.00
32215;DHT22;18708;53.124;23.190;2023-09-08T00:37:39;11.40;1.00
32215;DHT22;18708;53.124;23.190;2023-09-08T00:40:05;11.40;1.00
32215;DHT22;18708;53.124;23.190;2023-09-08T00:42:31;11.40;1.00
32215;DHT22;18708;53.124;23.190;2023-09-08T00:44:57;11.40;1.00
32215;DHT22;18708;53.124;23.190;2023-09-08T00:47:22;11.40;1.00
32215;DHT22;18708;53.124;23.190;2023-09-08T00:49:48;11.30;1.00
32215;DHT22;18708;53.124;23.190;2023-09-08T00:52:16;11.20;1.00
32215;DHT22;18708;53.124;23.190;2023-09-08T00:54:44;11.20;1.00
32215;DHT22;18708;53.124;23.190;2023-09-08T00:57:09;11.10;1.00
32215;DHT22;18708;53.124;23.190;2023-09-08T00:59:35;11.10;1.00
32215;DHT22;18708;53.124;23.190;2023-09-08T01:02:01;11.10;1.00
32215;DHT22;18708;53.124;23.190;2023-09-08T01:04:27;11.10;1.00
32215;DHT22;18708;53.124;23.190;2023-09-08T01:06:54;11.10;1.00
32215;DHT22;18708;53.124;23.190;2023-09-08T01:09:20;11.10;1.00
32215;DHT22;18708;53.124;23.190;2023-09-08T01:11:45;11.10;1.00
32215;DHT22;18708;53.124;23.190;2023-09-08T01:14:11;11.10;1.00
32215;DHT22;18708;53.124;23.190;2023-09-08T01:16:37;11.10;1.00
32215;DHT22;18708;53.124;23.190;2023-09-08T01:19:06;11.10;1.00
32215;DHT22;18708;53.124;23.190;2023-09-08T01:27:04;11.10;1.00
32215;DHT22;18708;53.124;23.190;2023-09-08T01:29:31;11.00;1.00
32215;DHT22;18708;53.124;23.190;2023-09-08T01:31:57;11.00;1.00
32215;DHT22;18708;53.124;23.190;2023-09-08T01:34:23;11.00;1.00
32215;DHT22;18708;53.124;23.190;2023-09-08T01:36:48;11.00;1.00
32215;DHT22;18708;53.124;23.190;2023-09-08T01:39:14;10.90;1.00
32215;DHT22;18708;53.124;23.190;2023-09-08T01:41:39;10.90;1.00
32215;DHT22;18708;53.124;23.190;2023-09-08T01:44:05;10.90;1.00
32215;DHT22;18708;53.124;23.190;2023-09-08T01:46:33;10.90;1.00
32215;DHT22;18708;53.124;23.190;2023-09-08T01:48:59;10.80;1.00
32215;DHT22;18708;53.124;23.190;2023-09-08T01:51:24;10.80;1.00
32215;DHT22;18708;53.124;23.190;2023-09-08T01:53:50;10.60;1.00
32215;DHT22;18708;53.124;23.190;2023-09-08T01:56:15;10.60;1.00
32215;DHT22;18708;53.124;23.190;2023-09-08T01:58:41;10.60;1.00
32215;DHT22;18708;53.124;23.190;2023-09-08T02:01:07;10.60;1.00
32215;DHT22;18708;53.124;23.190;2023-09-08T02:03:32;10.60;1.00
32215;DHT22;18708;53.124;23.190;2023-09-08T02:05:58;10.60;1.00
32215;DHT22;18708;53.124;23.190;2023-09-08T02:08:23;10.50;1.00
32215;DHT22;18708;53.124;23.190;2023-09-08T02:10:49;10.40;1.00
32215;DHT22;18708;53.124;23.190;2023-09-08T02:13:14;10.50;1.00
32215;DHT22;18708;53.124;23.190;2023-09-08T02:15:40;10.40;1.00
32215;DHT22;18708;53.124;23.190;2023-09-08T02:18:06;10.40;1.00
32215;DHT22;18708;53.124;23.190;2023-09-08T02:20:31;10.30;1.00
32215;DHT22;18708;53.124;23.190;2023-09-08T02:22:57;10.30;1.00
32215;DHT22;18708;53.124;23.190;2023-09-08T02:25:23;10.40;5.80
32215;DHT22;18708;53.124;23.190;2023-09-08T02:27:49;10.40;1.00
32215;DHT22;18708;53.124;23.190;2023-09-08T02:30:14;10.40;1.00
32215;DHT22;18708;53.124;23.190;2023-09-08T02:32:40;10.40;1.00
32215;DHT22;18708;53.124;23.190;2023-09-08T02:35:08;10.40;1.00
32215;DHT22;18708;53.124;23.190;2023-09-08T02:37:33;10.30;1.00
32215;DHT22;18708;53.124;23.190;2023-09-08T02:39:59;10.30;23.30
32215;DHT22;18708;53.124;23.190;2023-09-08T02:42:25;10.40;99.90
32215;DHT22;18708;53.124;23.190;2023-09-08T02:44:50;10.30;99.90
32215;DHT22;18708;53.124;23.190;2023-09-08T02:47:16;10.30;83.00
32215;DHT22;18708;53.124;23.190;2023-09-08T02:49:41;10.30;99.90
32215;DHT22;18708;53.124;23.190;2023-09-08T02:52:08;10.30;99.90
32215;DHT22;18708;53.124;23.190;2023-09-08T02:54:34;10.30;44.00
32215;DHT22;18708;53.124;23.190;2023-09-08T02:57:00;10.30;99.90
32215;DHT22;18708;53.124;23.190;2023-09-08T02:59:25;10.20;99.90
32215;DHT22;18708;53.124;23.190;2023-09-08T03:01:51;10.20;99.90
32215;DHT22;18708;53.124;23.190;2023-09-08T03:04:16;10.20;99.90
32215;DHT22;18708;53.124;23.190;2023-09-08T03:06:42;10.20;99.90
32215;DHT22;18708;53.124;23.190;2023-09-08T03:09:07;10.20;99.90
32215;DHT22;18708;53.124;23.190;2023-09-08T03:11:33;10.10;99.90
32215;DHT22;18708;53.124;23.190;2023-09-08T03:13:59;10.10;99.90
32215;DHT22;18708;53.124;23.190;2023-09-08T03:16:24;10.10;99.90
32215;DHT22;18708;53.124;23.190;2023-09-08T03:18:50;10.10;99.90
32215;DHT22;18708;53.124;23.190;2023-09-08T03:21:15;10.10;99.90
32215;DHT22;18708;53.124;23.190;2023-09-08T03:23:42;10.00;1.00
32215;DHT22;18708;53.124;23.190;2023-09-08T03:26:08;10.00;53.80
32215;DHT22;18708;53.124;23.190;2023-09-08T03:28:34;10.00;99.90
32215;DHT22;18708;53.124;23.190;2023-09-08T03:31:01;10.00;99.90
32215;DHT22;18708;53.124;23.190;2023-09-08T03:33:26;10.00;99.90
32215;DHT22;18708;53.124;23.190;2023-09-08T03:35:52;10.00;99.90
32215;DHT22;18708;53.124;23.190;2023-09-08T03:38:18;10.00;99.90
32215;DHT22;18708;53.124;23.190;2023-09-08T03:40:43;9.90;99.90
32215;DHT22;18708;53.124;23.190;2023-09-08T03:43:09;9.90;99.90
32215;DHT22;18708;53.124;23.190;2023-09-08T03:45:34;9.90;99.90
32215;DHT22;18708;53.124;23.190;2023-09-08T03:48:00;9.90;99.90
32215;DHT22;18708;53.124;23.190;2023-09-08T03:50:25;9.90;99.90
32215;DHT22;18708;53.124;23.190;2023-09-08T03:52:51;9.80;99.90
32215;DHT22;18708;53.124;23.190;2023-09-08T03:55:16;9.80;99.90
32215;DHT22;18708;53.124;23.190;2023-09-08T03:57:42;9.80;99.90
32215;DHT22;18708;53.124;23.190;2023-09-08T04:00:08;9.80;99.90
32215;DHT22;18708;53.124;23.190;2023-09-08T04:02:35;9.80;99.90
32215;DHT22;18708;53.124;23.190;2023-09-08T04:05:01;9.80;99.90
32215;DHT22;18708;53.124;23.190;2023-09-08T04:07:26;9.80;99.90
32215;DHT22;18708;53.124;23.190;2023-09-08T04:09:52;9.80;99.90
32215;DHT22;18708;53.124;23.190;2023-09-08T04:12:17;9.80;99.90
32215;DHT22;18708;53.124;23.190;2023-09-08T04:14:43;9.90;99.90
32215;DHT22;18708;53.124;23.190;2023-09-08T04:17:08;9.90;99.90
32215;DHT22;18708;53.124;23.190;2023-09-08T04:19:34;9.90;99.90
32215;DHT22;18708;53.124;23.190;2023-09-08T04:22:00;9.90;99.90
32215;DHT22;18708;53.124;23.190;2023-09-08T04:24:25;9.90;99.90
32215;DHT22;18708;53.124;23.190;2023-09-08T04:26:51;9.90;99.90
32215;DHT22;18708;53.124;23.190;2023-09-08T04:29:16;9.90;99.90
32215;DHT22;18708;53.124;23.190;2023-09-08T04:31:42;9.90;99.90
32215;DHT22;18708;53.124;23.190;2023-09-08T04:34:07;10.00;99.90
32215;DHT22;18708;53.124;23.190;2023-09-08T04:36:33;10.00;99.90
32215;DHT22;18708;53.124;23.190;2023-09-08T04:38:58;10.00;99.90
32215;DHT22;18708;53.124;23.190;2023-09-08T04:41:24;10.00;99.90
32215;DHT22;18708;53.124;23.190;2023-09-08T04:43:49;10.10;99.90
32215;DHT22;18708;53.124;23.190;2023-09-08T04:46:15;10.30;99.90
32215;DHT22;18708;53.124;23.190;2023-09-08T04:48:40;10.40;99.90
32215;DHT22;18708;53.124;23.190;2023-09-08T04:51:07;10.40;99.90
32215;DHT22;18708;53.124;23.190;2023-09-08T04:53:33;10.50;99.90
32215;DHT22;18708;53.124;23.190;2023-09-08T04:55:58;10.60;99.90
32215;DHT22;18708;53.124;23.190;2023-09-08T04:58:24;10.80;99.90
32215;DHT22;18708;53.124;23.190;2023-09-08T05:00:51;11.00;99.90
32215;DHT22;18708;53.124;23.190;2023-09-08T05:03:16;11.10;99.90
32215;DHT22;18708;53.124;23.190;2023-09-08T05:05:42;11.10;99.90
32215;DHT22;18708;53.124;23.190;2023-09-08T05:08:07;11.20;99.90
32215;DHT22;18708;53.124;23.190;2023-09-08T05:10:33;11.10;99.90
32215;DHT22;18708;53.124;23.190;2023-09-08T05:12:58;11.20;99.90
32215;DHT22;18708;53.124;23.190;2023-09-08T05:15:24;11.20;99.90
32215;DHT22;18708;53.124;23.190;2023-09-08T05:17:50;11.30;99.90
32215;DHT22;18708;53.124;23.190;2023-09-08T05:20:16;11.40;99.90
32215;DHT22;18708;53.124;23.190;2023-09-08T05:22:41;11.50;99.90
32215;DHT22;18708;53.124;23.190;2023-09-08T05:25:07;11.70;99.90
32215;DHT22;18708;53.124;23.190;2023-09-08T05:27:33;11.90;99.90
32215;DHT22;18708;53.124;23.190;2023-09-08T05:29:58;12.20;99.90
32215;DHT22;18708;53.124;23.190;2023-09-08T05:32:24;12.60;99.90
32215;DHT22;18708;53.124;23.190;2023-09-08T05:34:50;12.70;99.90
32215;DHT22;18708;53.124;23.190;2023-09-08T05:37:15;13.00;99.90
32215;DHT22;18708;53.124;23.190;2023-09-08T05:39:41;13.20;99.90
32215;DHT22;18708;53.124;23.190;2023-09-08T05:42:06;13.50;99.90
32215;DHT22;18708;53.124;23.190;2023-09-08T05:44:32;14.00;99.90
32215;DHT22;18708;53.124;23.190;2023-09-08T05:46:57;14.50;99.90
32215;DHT22;18708;53.124;23.190;2023-09-08T05:49:23;14.70;99.90
32215;DHT22;18708;53.124;23.190;2023-09-08T05:51:49;14.80;99.90
32215;DHT22;18708;53.124;23.190;2023-09-08T05:54:14;15.00;99.90
32215;DHT22;18708;53.124;23.190;2023-09-08T05:56:40;15.50;1.00
32215;DHT22;18708;53.124;23.190;2023-09-08T05:59:06;15.90;1.00
32215;DHT22;18708;53.124;23.190;2023-09-08T06:01:31;16.40;99.90
32215;DHT22;18708;53.124;23.190;2023-09-08T06:03:57;16.80;1.00
32215;DHT22;18708;53.124;23.190;2023-09-08T06:06:23;17.20;1.00
32215;DHT22;18708;53.124;23.190;2023-09-08T06:08:50;17.50;1.00
32215;DHT22;18708;53.124;23.190;2023-09-08T06:11:16;17.70;99.90
32215;DHT22;18708;53.124;23.190;2023-09-08T06:13:41;18.10;6.90
32215;DHT22;18708;53.124;23.190;2023-09-08T06:16:07;18.20;1.00
32215;DHT22;18708;53.124;23.190;2023-09-08T06:18:33;18.60;1.00
32215;DHT22;18708;53.124;23.190;2023-09-08T06:21:08;19.00;1.00
32215;DHT22;18708;53.124;23.190;2023-09-08T06:23:34;19.30;1.00
32215;DHT22;18708;53.124;23.190;2023-09-08T06:26:00;19.80;1.00
32215;DHT22;18708;53.124;23.190;2023-09-08T06:28:28;20.20;1.00
32215;DHT22;18708;53.124;23.190;2023-09-08T06:30:53;20.60;1.00
32215;DHT22;18708;53.124;23.190;2023-09-08T06:33:19;20.60;1.00
32215;DHT22;18708;53.124;23.190;2023-09-08T06:35:45;20.60;1.00
32215;DHT22;18708;53.124;23.190;2023-09-08T06:38:11;20.90;1.00
32215;DHT22;18708;53.124;23.190;2023-09-08T06:40:36;21.00;1.00
32215;DHT22;18708;53.124;23.190;2023-09-08T06:43:02;21.50;1.00
32215;DHT22;18708;53.124;23.190;2023-09-08T06:45:27;21.90;1.00
32215;DHT22;18708;53.124;23.190;2023-09-08T06:47:53;21.80;1.00
32215;DHT22;18708;53.124;23.190;2023-09-08T06:50:23;21.80;1.00
32215;DHT22;18708;53.124;23.190;2023-09-08T06:52:52;21.80;1.00
32215;DHT22;18708;53.124;23.190;2023-09-08T06:55:17;22.30;1.00
32215;DHT22;18708;53.124;23.190;2023-09-08T06:57:45;22.40;1.00
32215;DHT22;18708;53.124;23.190;2023-09-08T07:00:11;22.90;99.90
32215;DHT22;18708;53.124;23.190;2023-09-08T07:02:40;23.40;99.90
32215;DHT22;18708;53.124;23.190;2023-09-08T07:05:05;23.40;1.00
32215;DHT22;18708;53.124;23.190;2023-09-08T07:07:34;23.20;99.90
32215;DHT22;18708;53.124;23.190;2023-09-08T07:10:01;23.60;1.00
32215;DHT22;18708;53.124;23.190;2023-09-08T07:12:27;24.20;99.90
32215;DHT22;18708;53.124;23.190;2023-09-08T07:14:53;24.20;1.00
32215;DHT22;18708;53.124;23.190;2023-09-08T07:17:18;24.30;1.00
32215;DHT22;18708;53.124;23.190;2023-09-08T07:19:44;24.20;1.00
32215;DHT22;18708;53.124;23.190;2023-09-08T07:22:09;24.20;1.00
32215;DHT22;18708;53.124;23.190;2023-09-08T07:24:35;24.60;99.90
32215;DHT22;18708;53.124;23.190;2023-09-08T07:27:00;25.10;1.00
32215;DHT22;18708;53.124;23.190;2023-09-08T07:29:27;25.40;1.00
32215;DHT22;18708;53.124;23.190;2023-09-08T07:31:52;25.10;1.00
32215;DHT22;18708;53.124;23.190;2023-09-08T07:34:18;25.60;1.00
32215;DHT22;18708;53.124;23.190;2023-09-08T07:36:43;24.90;99.90
32215;DHT22;18708;53.124;23.190;2023-09-08T07:39:09;25.50;1.00
32215;DHT22;18708;53.124;23.190;2023-09-08T07:41:34;25.30;1.00
32215;DHT22;18708;53.124;23.190;2023-09-08T07:44:00;25.40;99.90
32215;DHT22;18708;53.124;23.190;2023-09-08T07:46:25;26.00;1.00
32215;DHT22;18708;53.124;23.190;2023-09-08T07:48:51;26.60;58.10
32215;DHT22;18708;53.124;23.190;2023-09-08T07:51:17;27.10;99.90
32215;DHT22;18708;53.124;23.190;2023-09-08T07:53:43;27.40;1.00
32215;DHT22;18708;53.124;23.190;2023-09-08T07:56:08;27.00;1.00
32215;DHT22;18708;53.124;23.190;2023-09-08T07:58:34;26.90;1.00
32215;DHT22;18708;53.124;23.190;2023-09-08T08:00:59;26.60;99.90
32215;DHT22;18708;53.124;23.190;2023-09-08T08:03:25;26.20;1.00
32215;DHT22;18708;53.124;23.190;2023-09-08T08:05:51;26.20;1.00
32215;DHT22;18708;53.124;23.190;2023-09-08T08:08:16;26.50;24.50
32215;DHT22;18708;53.124;23.190;2023-09-08T08:10:43;26.70;99.90
32215;DHT22;18708;53.124;23.190;2023-09-08T08:13:08;27.10;28.60
32215;DHT22;18708;53.124;23.190;2023-09-08T08:15:35;27.50;99.90
32215;DHT22;18708;53.124;23.190;2023-09-08T08:18:00;28.20;99.90
32215;DHT22;18708;53.124;23.190;2023-09-08T08:20:26;28.30;99.90
32215;DHT22;18708;53.124;23.190;2023-09-08T08:22:51;28.50;99.90
32215;DHT22;18708;53.124;23.190;2023-09-08T08:25:17;28.10;99.90
32215;DHT22;18708;53.124;23.190;2023-09-08T08:27:42;28.40;99.90
32215;DHT22;18708;53.124;23.190;2023-09-08T08:30:08;29.30;99.90
32215;DHT22;18708;53.124;23.190;2023-09-08T08:32:34;28.80;99.90
32215;DHT22;18708;53.124;23.190;2023-09-08T08:35:00;29.20;99.90
32215;DHT22;18708;53.124;23.190;2023-09-08T08:37:25;29.10;99.90
32215;DHT22;18708;53.124;23.190;2023-09-08T08:39:51;29.80;99.90
32215;DHT22;18708;53.124;23.190;2023-09-08T08:42:16;30.60;99.90
32215;DHT22;18708;53.124;23.190;2023-09-08T08:44:42;30.30;1.00
32215;DHT22;18708;53.124;23.190;2023-09-08T08:47:10;31.00;1.00
32215;DHT22;18708;53.124;23.190;2023-09-08T08:49:35;31.40;1.00
32215;DHT22;18708;53.124;23.190;2023-09-08T08:52:01;31.30;1.00
32215;DHT22;18708;53.124;23.190;2023-09-08T08:54:38;31.50;1.00
32215;DHT22;18708;53.124;23.190;2023-09-08T08:57:05;31.20;1.00
32215;DHT22;18708;53.124;23.190;2023-09-08T08:59:31;31.20;1.00
32215;DHT22;18708;53.124;23.190;2023-09-08T09:01:57;31.00;1.00
32215;DHT22;18708;53.124;23.190;2023-09-08T09:04:23;30.40;1.00
32215;DHT22;18708;53.124;23.190;2023-09-08T09:06:50;29.90;1.00
32215;DHT22;18708;53.124;23.190;2023-09-08T09:09:16;29.80;1.00
32215;DHT22;18708;53.124;23.190;2023-09-08T09:11:42;30.30;1.00
32215;DHT22;18708;53.124;23.190;2023-09-08T09:14:08;30.60;1.00
32215;DHT22;18708;53.124;23.190;2023-09-08T09:16:40;31.20;1.00
32215;DHT22;18708;53.124;23.190;2023-09-08T09:19:05;31.90;1.00
32215;DHT22;18708;53.124;23.190;2023-09-08T09:21:41;32.40;1.00
32215;DHT22;18708;53.124;23.190;2023-09-08T09:24:06;32.10;1.00
32215;DHT22;18708;53.124;23.190;2023-09-08T09:26:32;31.60;1.00
32215;DHT22;18708;53.124;23.190;2023-09-08T09:28:58;32.10;1.00
32215;DHT22;18708;53.124;23.190;2023-09-08T09:31:25;31.80;1.00
32215;DHT22;18708;53.124;23.190;2023-09-08T09:34:04;31.80;1.00
32215;DHT22;18708;53.124;23.190;2023-09-08T09:36:30;32.00;1.00
32215;DHT22;18708;53.124;23.190;2023-09-08T09:38:59;31.80;1.00
32215;DHT22;18708;53.124;23.190;2023-09-08T09:41:26;31.40;1.00
32215;DHT22;18708;53.124;23.190;2023-09-08T09:43:52;30.50;1.00
32215;DHT22;18708;53.124;23.190;2023-09-08T09:46:19;30.70;1.00
32215;DHT22;18708;53.124;23.190;2023-09-08T09:48:45;30.40;1.00
32215;DHT22;18708;53.124;23.190;2023-09-08T09:51:20;31.00;1.00
32215;DHT22;18708;53.124;23.190;2023-09-08T09:53:46;30.40;1.00
32215;DHT22;18708;53.124;23.190;2023-09-08T09:56:13;30.20;1.00
32215;DHT22;18708;53.124;23.190;2023-09-08T09:58:40;30.50;1.00
32215;DHT22;18708;53.124;23.190;2023-09-08T10:01:06;31.00;1.00
32215;DHT22;18708;53.124;23.190;2023-09-08T10:03:31;31.40;1.00
32215;DHT22;18708;53.124;23.190;2023-09-08T10:05:59;31.40;1.00
32215;DHT22;18708;53.124;23.190;2023-09-08T10:08:24;31.10;1.00
32215;DHT22;18708;53.124;23.190;2023-09-08T10:10:50;30.70;1.00
32215;DHT22;18708;53.124;23.190;2023-09-08T10:13:28;31.30;1.00
32215;DHT22;18708;53.124;23.190;2023-09-08T10:15:57;30.60;1.00
32215;DHT22;18708;53.124;23.190;2023-09-08T10:18:23;30.00;1.00
32215;DHT22;18708;53.124;23.190;2023-09-08T10:20:49;30.10;1.00
32215;DHT22;18708;53.124;23.190;2023-09-08T10:25:46;30.40;1.00
32215;DHT22;18708;53.124;23.190;2023-09-08T10:28:18;29.90;1.00
32215;DHT22;18708;53.124;23.190;2023-09-08T10:30:44;29.50;1.00
32215;DHT22;18708;53.124;23.190;2023-09-08T10:33:10;29.20;1.00
32215;DHT22;18708;53.124;23.190;2023-09-08T10:35:36;29.50;1.00
32215;DHT22;18708;53.124;23.190;2023-09-08T10:40:47;30.00;1.00
32215;DHT22;18708;53.124;23.190;2023-09-08T10:43:12;29.50;1.00
32215;DHT22;18708;53.124;23.190;2023-09-08T10:45:39;30.30;1.00
32215;DHT22;18708;53.124;23.190;2023-09-08T10:48:05;30.20;1.00
32215;DHT22;18708;53.124;23.190;2023-09-08T10:50:34;29.20;1.00
32215;DHT22;18708;53.124;23.190;2023-09-08T10:53:13;28.70;1.00
32215;DHT22;18708;53.124;23.190;2023-09-08T10:55:43;28.40;1.00
32215;DHT22;18708;53.124;23.190;2023-09-08T10:58:17;28.70;1.00
32215;DHT22;18708;53.124;23.190;2023-09-08T11:00:51;29.30;1.00
32215;DHT22;18708;53.124;23.190;2023-09-08T11:03:27;29.30;1.00
32215;DHT22;18708;53.124;23.190;2023-09-08T11:05:55;28.90;1.00
32215;DHT22;18708;53.124;23.190;2023-09-08T11:08:21;29.70;1.00
32215;DHT22;18708;53.124;23.190;2023-09-08T11:10:49;30.70;1.00
32215;DHT22;18708;53.124;23.190;2023-09-08T11:13:15;31.20;1.00
32215;DHT22;18708;53.124;23.190;2023-09-08T11:15:43;31.70;1.00
32215;DHT22;18708;53.124;23.190;2023-09-08T11:18:09;31.20;1.00
32215;DHT22;18708;53.124;23.190;2023-09-08T11:20:34;31.30;1.00
32215;DHT22;18708;53.124;23.190;2023-09-08T11:23:00;31.20;1.00
32215;DHT22;18708;53.124;23.190;2023-09-08T11:25:25;31.60;1.00
32215;DHT22;18708;53.124;23.190;2023-09-08T11:27:51;31.60;1.00
32215;DHT22;18708;53.124;23.190;2023-09-08T11:30:17;31.90;1.00
32215;DHT22;18708;53.124;23.190;2023-09-08T11:32:42;31.50;1.00
32215;DHT22;18708;53.124;23.190;2023-09-08T11:35:09;31.50;1.00
32215;DHT22;18708;53.124;23.190;2023-09-08T11:37:39;31.40;1.00
32215;DHT22;18708;53.124;23.190;2023-09-08T11:40:05;31.70;1.00
32215;DHT22;18708;53.124;23.190;2023-09-08T11:42:40;31.20;1.00
32215;DHT22;18708;53.124;23.190;2023-09-08T11:45:12;30.70;1.00
32215;DHT22;18708;53.124;23.190;2023-09-08T11:47:41;30.90;1.00
32215;DHT22;18708;53.124;23.190;2023-09-08T11:50:08;31.90;1.00
32215;DHT22;18708;53.124;23.190;2023-09-08T11:52:34;32.50;1.00
32215;DHT22;18708;53.124;23.190;2023-09-08T11:54:59;31.90;1.00
32215;DHT22;18708;53.124;23.190;2023-09-08T11:57:25;32.10;1.00
32215;DHT22;18708;53.124;23.190;2023-09-08T11:59:51;32.10;1.00
32215;DHT22;18708;53.124;23.190;2023-09-08T12:02:16;32.50;1.00
32215;DHT22;18708;53.124;23.190;2023-09-08T12:04:42;32.90;1.00
32215;DHT22;18708;53.124;23.190;2023-09-08T12:07:11;32.20;1.00
32215;DHT22;18708;53.124;23.190;2023-09-08T12:09:38;31.20;1.00
32215;DHT22;18708;53.124;23.190;2023-09-08T12:12:03;30.20;1.00
32215;DHT22;18708;53.124;23.190;2023-09-08T12:14:40;30.20;1.00
32215;DHT22;18708;53.124;23.190;2023-09-08T12:17:06;30.30;1.00
32215;DHT22;18708;53.124;23.190;2023-09-08T12:19:34;31.00;1.00
32215;DHT22;18708;53.124;23.190;2023-09-08T12:22:04;31.30;1.00
32215;DHT22;18708;53.124;23.190;2023-09-08T12:27:17;30.00;1.00
32215;DHT22;18708;53.124;23.190;2023-09-08T12:29:56;29.90;1.00
32215;DHT22;18708;53.124;23.190;2023-09-08T12:32:22;29.80;1.00
32215;DHT22;18708;53.124;23.190;2023-09-08T12:34:48;30.70;1.00
32215;DHT22;18708;53.124;23.190;2023-09-08T12:37:14;31.10;1.00
32215;DHT22;18708;53.124;23.190;2023-09-08T12:39:39;31.00;1.00
32215;DHT22;18708;53.124;23.190;2023-09-08T12:42:05;31.20;1.00
32215;DHT22;18708;53.124;23.190;2023-09-08T12:44:30;31.00;1.00
32215;DHT22;18708;53.124;23.190;2023-09-08T12:46:56;30.70;1.00
32215;DHT22;18708;53.124;23.190;2023-09-08T12:49:21;30.50;1.00
32215;DHT22;18708;53.124;23.190;2023-09-08T12:51:49;30.50;1.00
32215;DHT22;18708;53.124;23.190;2023-09-08T12:54:15;30.40;1.00
32215;DHT22;18708;53.124;23.190;2023-09-08T12:56:40;30.80;1.00
32215;DHT22;18708;53.124;23.190;2023-09-08T12:59:06;30.80;1.00
32215;DHT22;18708;53.124;23.190;2023-09-08T13:01:31;30.30;1.00
32215;DHT22;18708;53.124;23.190;2023-09-08T13:03:57;30.50;1.00
32215;DHT22;18708;53.124;23.190;2023-09-08T13:06:22;30.70;1.00
32215;DHT22;18708;53.124;23.190;2023-09-08T13:08:48;30.20;1.00
32215;DHT22;18708;53.124;23.190;2023-09-08T13:11:13;29.40;1.00
32215;DHT22;18708;53.124;23.190;2023-09-08T13:13:39;29.70;1.00
32215;DHT22;18708;53.124;23.190;2023-09-08T13:16:05;30.00;1.00
32215;DHT22;18708;53.124;23.190;2023-09-08T13:18:31;30.40;1.00
32215;DHT22;18708;53.124;23.190;2023-09-08T13:21:00;30.20;1.00
32215;DHT22;18708;53.124;23.190;2023-09-08T13:23:26;30.00;1.00
32215;DHT22;18708;53.124;23.190;2023-09-08T13:25:52;30.50;1.00
32215;DHT22;18708;53.124;23.190;2023-09-08T13:28:20;31.40;1.00
32215;DHT22;18708;53.124;23.190;2023-09-08T13:30:45;30.30;1.00
32215;DHT22;18708;53.124;23.190;2023-09-08T13:33:11;30.00;1.00
32215;DHT22;18708;53.124;23.190;2023-09-08T13:35:36;30.40;1.00
32215;DHT22;18708;53.124;23.190;2023-09-08T13:38:03;30.40;1.00
32215;DHT22;18708;53.124;23.190;2023-09-08T13:40:29;30.40;1.00
32215;DHT22;18708;53.124;23.190;2023-09-08T13:42:54;30.30;1.00
32215;DHT22;18708;53.124;23.190;2023-09-08T13:45:20;30.30;1.00
32215;DHT22;18708;53.124;23.190;2023-09-08T13:47:45;30.20;1.00
32215;DHT22;18708;53.124;23.190;2023-09-08T13:50:11;29.80;1.00
32215;DHT22;18708;53.124;23.190;2023-09-08T13:52:36;29.20;1.00
32215;DHT22;18708;53.124;23.190;2023-09-08T13:55:05;29.00;1.00
32215;DHT22;18708;53.124;23.190;2023-09-08T13:57:30;28.90;1.00
32215;DHT22;18708;53.124;23.190;2023-09-08T13:59:56;28.60;1.00
32215;DHT22;18708;53.124;23.190;2023-09-08T14:02:22;28.30;1.00
32215;DHT22;18708;53.124;23.190;2023-09-08T14:04:47;27.90;1.00
32215;DHT22;18708;53.124;23.190;2023-09-08T14:07:13;27.80;1.00
32215;DHT22;18708;53.124;23.190;2023-09-08T14:09:39;27.70;1.00
32215;DHT22;18708;53.124;23.190;2023-09-08T14:12:05;27.70;1.00
32215;DHT22;18708;53.124;23.190;2023-09-08T14:14:30;27.50;1.00
32215;DHT22;18708;53.124;23.190;2023-09-08T14:16:56;27.40;1.00
32215;DHT22;18708;53.124;23.190;2023-09-08T14:19:21;27.30;1.00
32215;DHT22;18708;53.124;23.190;2023-09-08T14:21:47;27.00;1.00
32215;DHT22;18708;53.124;23.190;2023-09-08T14:24:13;26.70;1.00
32215;DHT22;18708;53.124;23.190;2023-09-08T14:26:38;26.60;1.00
32215;DHT22;18708;53.124;23.190;2023-09-08T14:29:04;26.60;1.00
32215;DHT22;18708;53.124;23.190;2023-09-08T14:31:29;26.60;1.00
32215;DHT22;18708;53.124;23.190;2023-09-08T14:33:55;26.60;1.00
32215;DHT22;18708;53.124;23.190;2023-09-08T14:36:21;26.60;1.00
32215;DHT22;18708;53.124;23.190;2023-09-08T14:38:46;26.50;1.00
32215;DHT22;18708;53.124;23.190;2023-09-08T14:41:12;26.50;1.00
32215;DHT22;18708;53.124;23.190;2023-09-08T14:43:37;26.50;1.00
32215;DHT22;18708;53.124;23.190;2023-09-08T14:46:03;26.50;1.00
32215;DHT22;18708;53.124;23.190;2023-09-08T14:48:29;26.40;1.00
32215;DHT22;18708;53.124;23.190;2023-09-08T14:50:56;26.30;1.00
32215;DHT22;18708;53.124;23.190;2023-09-08T14:53:22;26.20;1.00
32215;DHT22;18708;53.124;23.190;2023-09-08T14:55:47;26.30;1.00
32215;DHT22;18708;53.124;23.190;2023-09-08T14:58:16;26.30;1.00
32215;DHT22;18708;53.124;23.190;2023-09-08T15:00:42;26.40;1.00
32215;DHT22;18708;53.124;23.190;2023-09-08T15:03:08;26.30;1.00
32215;DHT22;18708;53.124;23.190;2023-09-08T15:05:34;26.30;1.00
32215;DHT22;18708;53.124;23.190;2023-09-08T15:08:00;26.20;1.00
32215;DHT22;18708;53.124;23.190;2023-09-08T15:10:25;26.10;1.00
32215;DHT22;18708;53.124;23.190;2023-09-08T15:12:51;26.10;1.00
32215;DHT22;18708;53.124;23.190;2023-09-08T15:15:17;26.10;1.00
32215;DHT22;18708;53.124;23.190;2023-09-08T15:17:52;26.00;1.00
32215;DHT22;18708;53.124;23.190;2023-09-08T15:20:17;26.00;1.00
32215;DHT22;18708;53.124;23.190;2023-09-08T15:22:43;26.10;1.00
32215;DHT22;18708;53.124;23.190;2023-09-08T15:25:09;26.00;1.00
32215;DHT22;18708;53.124;23.190;2023-09-08T15:27:34;25.90;1.00
32215;DHT22;18708;53.124;23.190;2023-09-08T15:30:00;25.80;1.00
32215;DHT22;18708;53.124;23.190;2023-09-08T15:32:25;25.80;1.00
32215;DHT22;18708;53.124;23.190;2023-09-08T15:34:51;25.80;1.00